Time,TemperatureF,DewpointF,PressureIn,WindDirection,WindDirectionDegrees,WindSpeedMPH,WindSpeedGustMPH,Humidity,HourlyPrecipIn,Conditions,Clouds,dailyrainin,SoftwareType,DateUTC
2013-04-10 00:08:00,58.1,53.0,29.94,WSW,239,0.0,1.0,82,0.00,,,0.00,weatherlink.com 1.10,2013-04-10 04:08:00,
2013-04-10 00:23:00,58.5,54.0,29.94,WSW,239,0.0,1.0,84,0.00,,,0.00,weatherlink.com 1.10,2013-04-10 04:23:00,
2013-04-10 00:38:00,59.5,54.0,29.93,WSW,239,0.0,1.0,82,0.00,,,0.00,weatherlink.com 1.10,2013-04-10 04:38:00,
2013-04-10 00:53:00,62.1,54.0,29.93,WSW,239,0.0,3.0,76,0.00,,,0.00,weatherlink.com 1.10,2013-04-10 04:53:00,
2013-04-10 01:08:00,62.1,54.0,29.93,SSE,152,1.0,2.0,76,0.00,,,0.00,weatherlink.com 1.10,2013-04-10 05:08:00,
2013-04-10 01:23:00,63.0,55.0,29.93,SW,236,1.0,2.0,75,0.00,,,0.00,weatherlink.com 1.10,2013-04-10 05:23:00,
2013-04-10 01:38:00,64.2,55.0,29.93,SW,224,1.0,2.0,73,0.00,,,0.00,weatherlink.com 1.10,2013-04-10 05:38:00,
2013-04-10 01:53:00,67.8,56.0,29.93,SW,227,3.0,5.0,65,0.00,,,0.00,weatherlink.com 1.10,2013-04-10 05:53:00,
2013-04-10 02:09:00,70.3,55.0,29.92,WSW,245,5.0,6.0,59,0.00,,,0.00,weatherlink.com 1.10,2013-04-10 06:09:00,
2013-04-10 02:24:00,71.2,56.0,29.92,WSW,255,5.0,6.0,58,0.00,,,0.00,weatherlink.com 1.10,2013-04-10 06:24:00,
2013-04-10 02:39:00,71.5,55.0,29.92,WSW,248,5.0,9.0,57,0.00,,,0.00,weatherlink.com 1.10,2013-04-10 06:39:00,
2013-04-10 02:54:00,71.7,55.0,29.91,West,267,3.0,9.0,57,0.00,,,0.00,weatherlink.com 1.10,2013-04-10 06:54:00,
2013-04-10 03:09:00,71.7,55.0,29.92,West,264,5.0,7.0,57,0.00,,,0.00,weatherlink.com 1.10,2013-04-10 07:09:00,
2013-04-10 03:24:00,71.5,55.0,29.91,West,267,5.0,7.0,57,0.00,,,0.00,weatherlink.com 1.10,2013-04-10 07:24:00,
2013-04-10 03:39:00,71.5,55.0,29.92,West,269,3.0,11.0,57,0.00,,,0.00,weatherlink.com 1.10,2013-04-10 07:39:00,
2013-04-10 03:54:00,71.3,55.0,29.92,WNW,295,4.0,9.0,57,0.00,,,0.00,weatherlink.com 1.10,2013-04-10 07:54:00,
2013-04-10 04:09:00,71.0,55.0,29.93,West,271,5.0,8.0,58,0.00,,,0.00,weatherlink.com 1.10,2013-04-10 08:09:00,
2013-04-10 04:24:00,71.0,55.0,29.93,West,263,5.0,9.0,58,0.00,,,0.00,weatherlink.com 1.10,2013-04-10 08:24:00,
2013-04-10 04:39:00,70.8,56.0,29.93,WSW,256,5.0,9.0,59,0.00,,,0.00,weatherlink.com 1.10,2013-04-10 08:39:00,
2013-04-10 04:54:00,70.5,55.0,29.94,West,273,4.0,7.0,59,0.00,,,0.00,weatherlink.com 1.10,2013-04-10 08:54:00,
2013-04-10 05:09:00,70.1,55.0,29.94,WNW,284,2.0,7.0,60,0.00,,,0.00,weatherlink.com 1.10,2013-04-10 09:09:00,
2013-04-10 05:24:00,69.8,55.0,29.94,WNW,299,4.0,6.0,60,0.00,,,0.00,weatherlink.com 1.10,2013-04-10 09:24:00,
2013-04-10 05:39:00,69.4,55.0,29.95,West,281,0.0,6.0,61,0.00,,,0.00,weatherlink.com 1.10,2013-04-10 09:39:00,
2013-04-10 05:54:00,68.9,55.0,29.95,SW,232,1.0,3.0,62,0.00,,,0.00,weatherlink.com 1.10,2013-04-10 09:54:00,
2013-04-10 06:09:00,68.5,55.0,29.95,WNW,284,1.0,3.0,63,0.00,,,0.00,weatherlink.com 1.10,2013-04-10 10:09:00,
2013-04-10 06:24:00,68.5,55.0,29.95,NW,306,3.0,5.0,63,0.00,,,0.00,weatherlink.com 1.10,2013-04-10 10:24:00,
2013-04-10 06:39:00,69.2,55.0,29.96,WNW,290,2.0,6.0,61,0.00,,,0.00,weatherlink.com 1.10,2013-04-10 10:39:00,
2013-04-10 06:54:00,69.5,55.0,29.96,West,271,1.0,5.0,61,0.00,,,0.00,weatherlink.com 1.10,2013-04-10 10:54:00,
2013-04-10 07:09:00,69.9,55.0,29.96,West,270,1.0,5.0,60,0.00,,,0.00,weatherlink.com 1.10,2013-04-10 11:09:00,
2013-04-10 07:24:00,70.2,56.0,29.97,West,271,0.0,2.0,60,0.00,,,0.00,weatherlink.com 1.10,2013-04-10 11:24:00,
2013-04-10 07:39:00,70.3,56.0,29.97,SW,221,1.0,4.0,60,0.00,,,0.00,weatherlink.com 1.10,2013-04-10 11:39:00,
2013-04-10 07:54:00,70.3,56.0,29.98,SW,231,2.0,3.0,61,0.00,,,0.00,weatherlink.com 1.10,2013-04-10 11:54:00,
2013-04-10 08:09:00,71.3,56.0,29.98,West,259,1.0,5.0,59,0.00,,,0.00,weatherlink.com 1.10,2013-04-10 12:09:00,
2013-04-10 08:24:00,72.0,56.0,29.98,WSW,245,4.0,5.0,58,0.00,,,0.00,weatherlink.com 1.10,2013-04-10 12:24:00,
2013-04-10 08:39:00,72.6,56.0,29.98,WSW,243,2.0,6.0,57,0.00,,,0.00,weatherlink.com 1.10,2013-04-10 12:39:00,
2013-04-10 08:54:00,72.9,57.0,29.98,SW,232,2.0,5.0,57,0.00,,,0.00,weatherlink.com 1.10,2013-04-10 12:54:00,
2013-04-10 09:09:00,73.3,57.0,29.97,SSW,207,2.0,6.0,57,0.00,,,0.00,weatherlink.com 1.10,2013-04-10 13:09:00,
2013-04-10 09:24:00,74.0,57.0,29.97,SSW,203,4.0,7.0,56,0.00,,,0.00,weatherlink.com 1.10,2013-04-10 13:24:00,
2013-04-10 09:39:00,75.1,57.0,29.97,West,266,3.0,7.0,54,0.00,,,0.00,weatherlink.com 1.10,2013-04-10 13:39:00,
2013-04-10 09:54:00,77.0,57.0,29.97,WSW,250,1.0,7.0,51,0.00,,,0.00,weatherlink.com 1.10,2013-04-10 13:54:00,
2013-04-10 10:09:00,78.3,57.0,29.97,WNW,285,3.0,6.0,48,0.00,,,0.00,weatherlink.com 1.10,2013-04-10 14:09:00,
2013-04-10 10:24:00,79.6,57.0,29.96,SW,222,1.0,5.0,46,0.00,,,0.00,weatherlink.com 1.10,2013-04-10 14:24:00,
2013-04-10 10:40:00,81.2,57.0,29.96,SW,231,4.0,8.0,43,0.00,,,0.00,weatherlink.com 1.10,2013-04-10 14:40:00,
2013-04-10 10:55:00,82.1,56.0,29.96,West,264,3.0,8.0,41,0.00,,,0.00,weatherlink.com 1.10,2013-04-10 14:55:00,
2013-04-10 11:10:00,82.9,57.0,29.95,NNW,338,6.0,10.0,41,0.00,,,0.00,weatherlink.com 1.10,2013-04-10 15:10:00,
2013-04-10 11:25:00,83.5,57.0,29.95,West,271,4.0,13.0,41,0.00,,,0.00,weatherlink.com 1.10,2013-04-10 15:25:00,
2013-04-10 11:40:00,83.6,57.0,29.95,WSW,252,2.0,11.0,41,0.00,,,0.00,weatherlink.com 1.10,2013-04-10 15:40:00,
2013-04-10 11:55:00,83.7,57.0,29.95,NW,311,6.0,14.0,40,0.00,,,0.00,weatherlink.com 1.10,2013-04-10 15:55:00,
2013-04-10 12:10:00,84.3,57.0,29.95,WNW,290,6.0,13.0,39,0.00,,,0.00,weatherlink.com 1.10,2013-04-10 16:10:00,
2013-04-10 12:25:00,84.3,57.0,29.94,WNW,302,9.0,14.0,39,0.00,,,0.00,weatherlink.com 1.10,2013-04-10 16:25:00,
2013-04-10 12:40:00,84.7,58.0,29.93,WNW,287,6.0,13.0,40,0.00,,,0.00,weatherlink.com 1.10,2013-04-10 16:40:00,
2013-04-10 12:55:00,84.9,57.0,29.93,WNW,285,3.0,14.0,39,0.00,,,0.00,weatherlink.com 1.10,2013-04-10 16:55:00,
2013-04-10 13:10:00,85.2,58.0,29.93,NW,311,10.0,18.0,39,0.00,,,0.00,weatherlink.com 1.10,2013-04-10 17:10:00,
2013-04-10 13:25:00,86.3,58.0,29.92,WNW,283,9.0,11.0,38,0.00,,,0.00,weatherlink.com 1.10,2013-04-10 17:25:00,
2013-04-10 13:40:00,86.6,57.0,29.92,NW,311,5.0,12.0,36,0.00,,,0.00,weatherlink.com 1.10,2013-04-10 17:40:00,
2013-04-10 13:55:00,86.8,57.0,29.92,WNW,287,8.0,16.0,36,0.00,,,0.00,weatherlink.com 1.10,2013-04-10 17:55:00,
2013-04-10 14:25:00,87.7,56.0,29.90,West,281,5.0,14.0,34,0.00,,,0.00,weatherlink.com 1.10,2013-04-10 18:25:00,
2013-04-10 14:40:00,88.0,56.0,29.89,WNW,288,2.0,13.0,34,0.00,,,0.00,weatherlink.com 1.10,2013-04-10 18:40:00,
2013-04-10 14:55:00,88.5,56.0,29.88,WNW,292,7.0,15.0,33,0.00,,,0.00,weatherlink.com 1.10,2013-04-10 18:55:00,
2013-04-10 15:10:00,88.8,56.0,29.88,SW,235,7.0,15.0,33,0.00,,,0.00,weatherlink.com 1.10,2013-04-10 19:10:00,
2013-04-10 15:25:00,89.2,57.0,29.88,SW,222,13.0,17.0,33,0.00,,,0.00,weatherlink.com 1.10,2013-04-10 19:25:00,
2013-04-10 15:40:00,86.7,57.0,29.86,WSW,240,6.0,12.0,36,0.00,,,0.00,weatherlink.com 1.10,2013-04-10 19:40:00,
2013-04-10 15:56:00,88.6,57.0,29.86,SSW,210,13.0,16.0,34,0.00,,,0.00,weatherlink.com 1.10,2013-04-10 19:56:00,
2013-04-10 16:11:00,89.5,56.0,29.85,West,273,7.0,15.0,32,0.00,,,0.00,weatherlink.com 1.10,2013-04-10 20:11:00,
2013-04-10 16:26:00,89.3,56.0,29.85,WSW,237,4.0,10.0,32,0.00,,,0.00,weatherlink.com 1.10,2013-04-10 20:26:00,
2013-04-10 16:41:00,89.4,55.0,29.85,WSW,248,8.0,19.0,31,0.00,,,0.00,weatherlink.com 1.10,2013-04-10 20:41:00,
2013-04-10 16:56:00,85.1,56.0,29.85,South,186,11.0,14.0,37,0.00,,,0.00,weatherlink.com 1.10,2013-04-10 20:56:00,
2013-04-10 17:11:00,80.2,56.0,29.85,SSE,149,0.0,16.0,44,0.00,,,0.00,weatherlink.com 1.10,2013-04-10 21:11:00,
2013-04-10 17:26:00,78.6,57.0,29.84,SSW,205,9.0,14.0,47,0.00,,,0.00,weatherlink.com 1.10,2013-04-10 21:26:00,
2013-04-10 18:26:00,76.4,57.0,29.82,SSW,197,7.0,13.0,52,0.00,,,0.00,weatherlink.com 1.10,2013-04-10 22:26:00,
2013-04-10 18:41:00,74.0,56.0,29.81,South,190,8.0,16.0,53,0.00,,,0.00,weatherlink.com 1.10,2013-04-10 22:41:00,
2013-04-10 19:11:00,70.7,55.0,29.81,SSW,194,3.0,10.0,58,0.00,,,0.00,weatherlink.com 1.10,2013-04-10 23:11:00,
2013-04-10 19:26:00,69.0,55.0,29.81,South,191,2.0,8.0,62,0.00,,,0.00,weatherlink.com 1.10,2013-04-10 23:26:00,
2013-04-10 19:41:00,67.7,55.0,29.81,South,174,4.0,7.0,64,0.00,,,0.00,weatherlink.com 1.10,2013-04-10 23:41:00,
2013-04-10 19:56:00,65.9,55.0,29.81,South,169,4.0,8.0,69,0.00,,,0.00,weatherlink.com 1.10,2013-04-10 23:56:00,
2013-04-10 20:41:00,64.5,55.0,29.81,SSW,210,2.0,3.0,71,0.00,,,0.00,weatherlink.com 1.10,2013-04-11 00:41:00,
2013-04-10 20:56:00,64.3,55.0,29.81,SW,218,1.0,3.0,72,0.00,,,0.00,weatherlink.com 1.10,2013-04-11 00:56:00,
2013-04-10 21:26:00,63.7,55.0,29.81,SSW,198,1.0,2.0,74,0.00,,,0.00,weatherlink.com 1.10,2013-04-11 01:26:00,
2013-04-10 21:41:00,63.4,55.0,29.82,SW,215,0.0,4.0,75,0.00,,,0.00,weatherlink.com 1.10,2013-04-11 01:41:00,
2013-04-10 21:56:00,63.1,56.0,29.82,SW,215,0.0,1.0,77,0.00,,,0.00,weatherlink.com 1.10,2013-04-11 01:56:00,
2013-04-10 22:11:00,62.8,56.0,29.82,SW,214,0.0,0.0,77,0.00,,,0.00,weatherlink.com 1.10,2013-04-11 02:11:00,
2013-04-10 22:26:00,62.3,56.0,29.82,SW,215,0.0,0.0,79,0.00,,,0.00,weatherlink.com 1.10,2013-04-11 02:26:00,
2013-04-10 22:41:00,66.1,58.0,29.82,WSW,245,4.0,5.0,75,0.00,,,0.00,weatherlink.com 1.10,2013-04-11 02:41:00,
2013-04-10 22:56:00,76.6,59.0,29.82,West,269,4.0,9.0,55,0.00,,,0.00,weatherlink.com 1.10,2013-04-11 02:56:00,
2013-04-10 23:11:00,79.3,59.0,29.82,SW,235,6.0,13.0,50,0.00,,,0.00,weatherlink.com 1.10,2013-04-11 03:11:00,
2013-04-10 23:42:00,80.1,59.0,29.83,WNW,283,5.0,15.0,48,0.00,,,0.00,weatherlink.com 1.10,2013-04-11 03:42:00,
2013-04-10 23:57:00,80.0,59.0,29.83,WSW,253,2.0,12.0,48,0.00,,,0.00,weatherlink.com 1.10,2013-04-11 03:57:00,